Latest Coastal Weather Observations for Coolangatta

IDQ60701

Issued at 8:42 pm EST Friday 19 December 2014 (issued every 10 minutes, with the page automatically refreshed every 10 minutes)

About coastal observations | Map of coastal stations | Coastal observations for QLD | Marine services | Other Formats
Station Details ID: 040717 Name: COOLANGATTA Lat: -28.17 Lon: 153.51 Height: 4.0 m
Data from the previous 72 hours. | See also: Recent months at Coolangatta
Date/Time
EST
Temp

°C
Wind Pressure Rain
since 9am
mm
Weather Cloud Vis
km
Sea
Height
m
Swell
Dir
 
Speed
knots
Gust
knots
hPa Trend Height
m
Period
s
Dir
19/08:30pm 24.2 S 11 14 1013.7 - 0.0 - Partly cloudy 10 - - - -
19/08:00pm 24.4 S 10 14 1013.3 - 0.0 - Partly cloudy 10 - - - -
19/07:30pm 24.6 SSE 10 14 1012.9 - 0.0 - - 10 - - - -
19/07:00pm 25.3 SSE 11 17 1012.5 - 0.0 - Partly cloudy 10 - - - -
19/06:30pm 26.2 SE 8 11 1011.9 - 0.0 - - 10 - - - -
19/06:00pm 27.3 SE 9 15 1011.3 - 0.0 - Mostly clear 10 - - - -
19/05:30pm 27.6 ESE 6 9 1010.6 - 0.0 - - 10 - - - -
19/05:00pm 26.8 ENE 8 11 1010.0 - 0.0 - - 10 - - - -
19/04:30pm 27.1 ENE 10 13 1009.3 - 0.0 - - 10 - - - -
19/04:00pm 27.5 NE 9 13 1008.5 - 0.0 - - 10 - - - -
19/03:30pm 28.1 NNE 11 14 1008.3 - 0.0 - - 10 - - - -
19/03:00pm 28.0 NNE 11 15 1008.3 - 0.0 - - 10 - - - -
19/02:30pm 28.5 NNE 12 16 1008.5 - 0.0 - - 10 - - - -
19/02:00pm 28.9 NNE 13 16 1008.8 - 0.0 - - 10 - - - -
19/01:30pm 28.7 NNE 12 16 1009.0 - 0.0 - - 10 - - - -
19/01:00pm 29.4 NNE 12 14 1009.3 - 0.0 - - 10 - - - -
19/12:30pm 29.1 NNE 11 13 1009.7 - 0.0 - - 10 - - - -
19/12:00pm 28.5 NNE 10 12 1010.0 - 0.0 - Mostly clear 10 - - - -
19/11:30am 28.2 NNE 11 13 1010.2 - 0.0 - - 10 - - - -
19/11:00am 28.4 NNE 10 12 1010.4 - 0.0 - - 10 - - - -
19/10:30am 27.3 NNE 12 14 1010.5 - 0.0 - - 10 - - - -
19/10:00am 27.0 NNE 11 13 1010.5 - 0.0 - - 10 - - - -
19/09:30am 26.5 N 11 13 1010.7 - 0.0 - - 10 - - - -
19/09:00am 26.7 N 9 13 1010.9 - 5.6 - - 10 - - - -
19/08:30am 25.7 NW 6 9 1011.1 - 5.6 - - 10 - - - -
19/08:00am 23.9 WNW 5 9 1011.2 - 5.6 - - 10 - - - -
19/07:30am 22.2 NW 4 6 1011.0 - 5.6 - - 10 - - - -
19/07:00am 21.0 CALM 0 0 1011.1 - 5.6 - - 10 - - - -
19/06:30am 20.7 CALM 0 0 1011.0 - 5.6 - - 10 - - - -
19/06:00am 20.5 SW 2 4 1011.0 - 5.6 - Mostly clear 10 - - - -
19/05:30am 20.2 WNW 3 7 1010.7 - 5.6 - - 10 - - - -
19/05:00am 20.2 WNW 7 10 1010.7 - 5.6 - Cloudy 10 - - - -
19/04:30am 19.9 NW 6 7 1010.3 - 5.6 - Cloudy 10 - - - -
19/04:00am 19.9 N 6 8 1010.3 - 5.6 - Partly cloudy 10 - - - -
19/03:30am 19.9 WNW 4 5 1010.5 - 5.4 - Partly cloudy 10 - - - -
19/03:00am 19.9 CALM 0 0 1010.7 - 5.4 Rain Cloudy 10 - - - -
19/02:30am 19.9 WSW 4 6 1011.4 - 5.0 - Cloudy 10 - - - -
19/02:00am 20.3 W 6 8 1011.6 - 4.8 - Partly cloudy 9 - - - -
19/01:30am 21.3 WSW 8 13 1011.9 - 3.6 - Partly cloudy 10 - - - -
19/01:00am 22.4 W 7 11 1012.0 - 3.0 - Partly cloudy 8 - - - -
19/12:30am 22.7 WSW 6 7 1011.9 - 1.8 - Partly cloudy 8 - - - -
19/12:00am 23.0 W 6 8 1011.7 - 1.2 Rain Cloudy 10 - - - -
 
Date/Time
EST
Temp

°C
Wind Pressure Rain
since 9am
mm
Weather Cloud Vis
km
Sea
Height
m
Swell
Dir
 
Speed
knots
Gust
knots
hPa Trend Height
m
Period
s
Dir
18/11:30pm 23.3 N 5 8 1011.1 - 1.0 - Partly cloudy 10 - - - -
18/11:00pm 23.1 SE 5 6 1011.4 - 1.0 - Partly cloudy 10 - - - -
18/10:30pm 22.8 W 6 8 1011.2 - 1.0 - Cloudy 10 - - - -
18/10:00pm 23.0 W 4 7 1010.7 - 1.0 - Cloudy 10 - - - -
18/09:30pm 23.9 NE 6 8 1010.5 - 1.0 - Cloudy 10 - - - -
18/09:00pm 23.6 SE 3 6 1010.9 - 0.8 Rain Cloudy 10 - - - -
18/08:30pm 23.6 ESE 6 8 1010.1 - 0.6 - Partly cloudy 10 - - - -
18/08:00pm 23.7 E 4 6 1010.1 - 0.6 - - 10 - - - -
18/07:30pm 23.2 SSW 2 4 1010.1 - 0.6 - Cloudy 10 - - - -
18/07:00pm 23.1 WNW 9 11 1010.0 - 0.6 - Partly cloudy 10 - - - -
18/06:30pm 25.2 W 14 23 1009.7 - 0.0 - Partly cloudy 10 - - - -
18/06:25pm 25.7 WNW 8 23 1009.6 - 0.0 - Partly cloudy 10 - - - -
18/06:00pm 26.2 WNW 8 10 1008.3 - 0.0 - Cloudy 10 - - - -
18/05:30pm 26.2 N 10 14 1006.7 - 0.0 - - 10 - - - -
18/05:00pm 26.2 N 11 16 1006.7 - 0.0 - - 10 - - - -
18/04:30pm 26.3 N 11 14 1006.1 - 0.0 - Partly cloudy 10 - - - -
18/04:00pm 26.7 N 12 15 1006.0 - 0.0 - - 10 - - - -
18/03:30pm 27.6 N 15 18 1005.8 - 0.0 - - 10 - - - -
18/03:00pm 27.1 N 11 17 1006.3 - 0.0 - Partly cloudy 10 - - - -
18/02:30pm 27.3 NNE 13 18 1006.3 - 0.0 - - 10 - - - -
18/02:00pm 29.0 NNE 12 15 1006.7 - 0.0 - - 10 - - - -
18/01:30pm 28.6 NNE 14 17 1007.7 - 0.0 - - 10 - - - -
18/01:00pm 28.9 NNE 12 16 1008.3 - 0.0 - - 10 - - - -
18/12:30pm 28.7 NNE 11 13 1008.5 - 0.0 - - 10 - - - -
18/12:00pm 27.5 NNE 11 15 1008.9 - 0.0 - Mostly clear 10 - - - -
18/11:30am 28.5 N 11 13 1009.7 - 0.0 - - 10 - - - -
18/11:00am 28.5 NNE 10 12 1010.1 - 0.0 - - 10 - - - -
18/10:30am 27.6 NNE 11 13 1010.4 - 0.0 - - 10 - - - -
18/10:00am 28.2 N 11 13 1010.4 - 0.0 - - 10 - - - -
18/09:30am 27.6 N 9 11 1010.4 - 0.0 - - 10 - - - -
18/09:07am 27.4 NNW 11 14 1010.4 - 0.0 - Partly cloudy 10 - - - -
18/09:00am 27.6 NNW 10 14 1010.4 - 0.2 Recent precip. Cloudy 10 - - - -
18/08:30am 27.4 NNW 7 9 1010.9 - 0.0 - Partly cloudy 10 - - - -
18/08:28am 27.0 NNW 7 9 1010.9 - 0.0 - Partly cloudy 10 - - - -
18/08:13am 26.8 NW 4 7 1010.8 - 0.0 - Partly cloudy 9 - - - -
18/08:00am 25.8 NNW 6 8 1010.9 - 0.0 - Partly cloudy 9 - - - -
18/07:58am 25.5 NNW 6 8 1010.9 - 0.0 - Partly cloudy 9 - - - -
18/07:30am 25.5 NNE 7 9 1010.8 - 0.0 - Partly cloudy 9 - - - -
18/07:00am 25.3 NW 4 6 1010.8 - 0.0 - - 10 - - - -
18/06:30am 23.9 NNW 4 5 1010.5 - 0.0 - - 9 - - - -
18/06:00am 23.6 SSW 3 4 1009.7 - 0.0 - - 9 - - - -
18/05:30am 23.1 S 3 5 1009.7 - 0.0 - - 9 - - - -
18/05:00am 23.4 S 8 11 1009.3 - 0.0 - - 9 - - - -
18/04:30am 23.6 SSE 10 14 1009.3 - 0.0 - Partly cloudy 8 - - - -
18/04:00am 23.5 S 11 15 1010.1 - 0.0 - Partly cloudy 8 - - - -
18/03:30am 24.1 SSW 10 15 1010.8 - 0.0 - Partly cloudy 8 - - - -
18/03:00am 24.1 SSW 7 11 1010.2 - 0.0 - Cloudy 8 - - - -
18/02:30am 24.3 SE 8 11 1009.1 - 0.0 - - 8 - - - -
18/02:00am 24.5 S 7 11 1009.8 - 0.0 - Partly cloudy 8 - - - -
18/01:58am 24.5 S 7 11 1009.7 - 0.0 - Partly cloudy 8 - - - -
18/01:30am 24.8 SSW 9 13 1010.2 - 0.0 - Partly cloudy 8 - - - -
18/01:00am 24.7 S 13 19 1009.5 - 0.0 - Cloudy 7 - - - -
18/12:30am 24.8 S 12 18 1009.3 - 0.0 - Partly cloudy 7 - - - -
18/12:00am 24.8 S 13 20 1008.8 - 0.0 - Cloudy 8 - - - -
 
Date/Time
EST
Temp

°C
Wind Pressure Rain
since 9am
mm
Weather Cloud Vis
km
Sea
Height
m
Swell
Dir
 
Speed
knots
Gust
knots
hPa Trend Height
m
Period
s
Dir
17/11:43pm 24.9 S 12 19 1009.1 - 0.0 - Partly cloudy 9 - - - -
17/11:30pm 25.1 S 13 19 1008.8 - 0.0 - - 10 - - - -
17/11:00pm 25.2 S 9 13 1008.7 - 0.0 - - 10 - - - -
17/10:30pm 25.1 S 7 10 1009.1 - 0.0 - - 10 - - - -
17/10:00pm 25.1 SSE 8 11 1008.5 - 0.0 - - 10 - - - -
17/09:30pm 25.0 SSE 1 4 1007.9 - 0.0 - - 10 - - - -
17/09:00pm 25.2 NNW 4 6 1007.2 - 0.0 - - 10 - - - -
17/08:30pm 25.4 NNW 8 12 1006.7 - 0.0 - - 9 - - - -
17/08:00pm 25.5 NNW 7 10 1006.3 - 0.0 - - 10 - - - -
17/07:30pm 25.6 N 8 10 1005.9 - 0.0 - - 10 - - - -
17/07:00pm 25.7 NNW 8 11 1005.5 - 0.0 - - 10 - - - -
17/06:30pm 25.9 N 9 11 1005.1 - 0.0 - - 10 - - - -
17/06:00pm 26.3 N 9 12 1004.8 - 0.0 - Mostly clear 10 - - - -
17/05:30pm 26.4 N 7 9 1004.2 - 0.0 - - 10 - - - -
17/05:00pm 26.6 NNW 8 11 1004.0 - 0.0 - - 10 - - - -
17/04:30pm 27.5 N 10 14 1003.7 - 0.0 - Partly cloudy 10 - - - -
17/04:00pm 28.0 N 10 14 1003.2 - 0.0 - - 10 - - - -
17/03:30pm 28.6 N 10 15 1003.2 - 0.0 - - 10 - - - -
17/03:00pm 28.8 N 13 17 1003.4 - 0.0 - - 10 - - - -
17/02:30pm 29.1 N 15 20 1003.5 - 0.0 - - 10 - - - -
17/02:00pm 29.5 N 16 21 1003.7 - 0.0 - - 10 - - - -
17/01:30pm 30.0 N 17 21 1003.8 - 0.0 - Partly cloudy 10 - - - -
17/01:00pm 30.5 NNE 18 23 1003.8 - 0.0 - - 10 - - - -
17/12:30pm 35.2 NW 7 14 1003.9 - 0.0 - - 10 - - - -
17/12:00pm 36.3 NNW 11 17 1004.4 - 0.0 - - - - - - -
17/11:30am 33.2 NW 11 16 1004.6 - 0.0 - - 10 - - - -
17/11:00am 29.9 N 15 18 1005.0 - 0.0 - - 10 - - - -
17/10:30am 29.7 N 14 19 1005.4 - 0.0 - - 10 - - - -
17/10:00am 28.8 N 13 17 1005.7 - 0.0 - - 10 - - - -
17/09:30am 27.4 N 11 15 1006.0 - 0.0 - - 10 - - - -
17/09:00am 28.2 N 12 15 1006.1 - 3.2 - - 10 - - - -
17/08:30am 27.9 NNW 10 14 1006.4 - 3.2 - - 10 - - - -
17/08:00am 26.9 NNW 10 15 1006.7 - 3.2 - Partly cloudy 10 - - - -
17/07:49am 26.3 NNW 10 16 1006.8 - 3.2 - Partly cloudy 10 - - - -
17/07:30am 25.8 NNW 8 12 1006.8 - 3.2 - Partly cloudy 10 - - - -
17/07:00am 25.4 NW 8 11 1006.7 - 3.2 - Partly cloudy 10 - - - -
17/06:30am 24.4 WNW 5 7 1006.5 - 3.2 - Cloudy 10 - - - -
17/06:21am 23.9 WNW 5 6 1006.6 - 3.2 - Cloudy 10 - - - -
17/06:05am 23.6 WNW 5 6 1006.5 - 3.2 - Cloudy 10 - - - -
17/06:00am 23.6 W 5 7 1006.5 - 3.2 - Cloudy 10 - - - -
17/05:30am 22.9 W 7 8 1006.1 - 3.2 - Partly cloudy 10 - - - -
17/05:10am 22.2 W 6 7 1005.8 - 3.2 - Partly cloudy 10 - - - -
17/05:00am 22.1 W 6 8 1005.6 - 3.2 - Partly cloudy 10 - - - -
17/04:30am 21.7 W 5 6 1005.4 - 3.2 - Partly cloudy 10 - - - -
17/04:00am 21.8 WSW 5 6 1005.5 - 3.2 - Partly cloudy 10 - - - -
17/03:30am 21.8 SW 3 4 1005.4 - 3.2 - Partly cloudy 10 - - - -
17/03:00am 21.9 WSW 2 4 1005.6 - 3.2 - Cloudy 10 - - - -
17/02:30am 21.8 W 3 4 1005.8 - 3.2 - - 10 - - - -
17/02:00am 21.9 WSW 5 8 1005.8 - 3.2 - Partly cloudy 10 - - - -
17/01:30am 22.3 SW 3 4 1006.1 - 3.0 - - 10 - - - -
17/01:00am 22.1 W 2 4 1006.7 - 3.0 - Partly cloudy 10 - - - -
17/12:30am 22.6 SW 3 5 1007.5 - 3.0 - - 10 - - - -
17/12:00am 23.0 N 2 6 1007.5 - 3.0 Recent precip. Cloudy 10 - - - -
 
Date/Time
EST
Temp

°C
Wind Pressure Rain
since 9am
mm
Weather Cloud Vis
km
Sea
Height
m
Swell
Dir
 
Speed
knots
Gust
knots
hPa Trend Height
m
Period
s
Dir
16/11:32pm 22.8 NNW 5 9 1007.7 - 3.0 - Partly cloudy 9 - - - -
16/11:30pm 22.8 NW 5 6 1007.9 - 3.0 - Partly cloudy 9 - - - -
16/11:02pm 23.2 NW 5 7 1008.7 - 1.0 - Partly cloudy 5 - - - -
16/11:00pm 23.2 N 5 7 1008.9 - 0.6 - Partly cloudy 9 - - - -
16/10:30pm 23.4 WSW 3 5 1009.0 - 0.0 - Partly cloudy 10 - - - -
16/10:00pm 24.0 WSW 7 17 1009.5 - 0.0 - Partly cloudy 10 - - - -
16/09:49pm 24.2 WNW 9 13 1009.6 - 0.0 - Partly cloudy 10 - - - -
16/09:30pm 24.1 NNW 10 14 1007.5 - 0.0 - - 10 - - - -
16/09:00pm 24.0 N 11 15 1006.9 - 0.0 - Mostly clear 10 - - - -

Other Formats:

Comma delimited format used in spreadsheet applications
http://www.bom.gov.au/fwo/IDQ60701/IDQ60701.94592.axf

JavaScript Object Notation format (JSON) in row-major order
http://www.bom.gov.au/fwo/IDQ60701/IDQ60701.94592.json